Hlavní strana
METAR-TAF:

METAR-TAF

Letiště :

N'Djamena, Čad

zeměpisná šířka: 12-08N, zeměpisná délka: 015-02E, výška: 295 m

Aktuální stav počasí

Zpráva byla vytvořena před 56 minutami, v 20:00 UTC
Severoseverozápadní vítr 7 kt
Teplota 23°C
Vlhkost vzduchu 25%
Tlak 1016 hPa
Viditelnost 10 km a více
Žádná oblačnost pod 1500 m, nevyskytují se cumulonimby.

METAR: FTTJ 112000Z 34007KT CAVOK 23/02 Q1016 NOSIG

Čas: 21:56 (20:56 UTC)

Předpověď počasí

Zpráva byla vytvořena před 3 hodinami a 56 minutami, v 17:00 UTC
Předpověď platná od 11 v 18 UTC do 12 v 24 UTC
Severoseverozápadní vítr 6 kt
Viditelnost: 6000 m
Změna
od 12 v 06 UTC do 12 v 08 UTC
Severovýchodní vítr 10 kt

TAF: FTTJ 111700Z 1118/1224 34006KT 6000 NSC BECMG 1206/1208 04010KT

Stav a předpovědi počasí z více než 4 000 letišť (zprávy METAR a TAF).

Červené a žluté tečky na mapě představují dostupné meteorologické stanice.

Když kurzor umístíte na tečku, zobrazí se název stanice.

Pak kliknutím zobrazíte stav a předpověď počasí.

Chcete-li změnit mapu, kliknutím na zelené tlačítko se znaménkem +mapu přiblížíte, kliknutím na zelené tlačítko se znaménkem – mapu oddálíte a kliknutím na zelené šipky přejdete na sousední mapy.


METAR-TAF: